Time;durP1;ratioP1;P1;durP2;ratioP2;P2;SDS_P1;SDS_P2;PMS_P1;PMS_P2;Temp;Humidity;BMP_temperature;BMP_pressure;BME280_temperature;BME280_humidity;BME280_pressure;Samples;Min_cycle;Max_cycle;Signal;HPM_P1;HPM_P2
2022/10/15 00:00:38;;;;;;;11.55;10.95;;;;;;;9.20;100.00;101466.44;5076179;28;20028;-65
2022/10/15 00:03:04;;;;;;;11.00;10.40;;;;;;;9.27;100.00;101462.22;5080787;28;20016;-65
2022/10/15 00:05:29;;;;;;;11.43;10.82;;;;;;;9.13;100.00;101462.69;5082187;28;20027;-65
2022/10/15 00:07:55;;;;;;;10.95;10.40;;;;;;;9.33;100.00;101458.19;5084177;28;20382;-66
2022/10/15 00:10:21;;;;;;;11.35;10.75;;;;;;;9.32;100.00;101453.84;5080247;28;20028;-66
2022/10/15 00:12:46;;;;;;;10.90;10.35;;;;;;;9.29;100.00;101457.63;5082299;28;20128;-66
2022/10/15 00:15:12;;;;;;;10.77;10.27;;;;;;;9.21;100.00;101454.03;5083483;28;20097;-65
2022/10/15 00:17:38;;;;;;;10.77;10.27;;;;;;;9.02;100.00;101457.53;5078230;28;20024;-65
2022/10/15 00:20:06;;;;;;;10.98;10.45;;;;;;;9.02;100.00;101454.88;5071492;28;20016;-65
2022/10/15 00:22:33;;;;;;;11.00;10.40;;;;;;;8.94;100.00;101465.34;5089474;28;20055;-64
2022/10/15 00:24:59;;;;;;;10.93;10.43;;;;;;;9.14;100.00;101462.53;5080552;28;20082;-66
2022/10/15 00:27:25;;;;;;;10.90;10.40;;;;;;;9.04;100.00;101453.78;5082163;28;20027;-66
2022/10/15 00:29:51;;;;;;;11.35;10.75;;;;;;;9.04;100.00;101461.72;5082927;28;20111;-66
2022/10/15 00:32:16;;;;;;;11.25;10.65;;;;;;;9.00;100.00;101462.97;5082858;28;20549;-66
2022/10/15 00:34:42;;;;;;;11.15;10.55;;;;;;;8.94;100.00;101460.88;5079673;28;20028;-65
2022/10/15 00:37:08;;;;;;;10.95;10.45;;;;;;;8.86;100.00;101461.59;5082757;28;20115;-66
2022/10/15 00:39:33;;;;;;;11.10;10.50;;;;;;;9.03;100.00;101452.13;5086126;28;20103;-65
2022/10/15 00:41:59;;;;;;;10.82;10.32;;;;;;;9.18;100.00;101444.56;5091828;28;20050;-66
2022/10/15 00:44:25;;;;;;;10.60;10.10;;;;;;;9.08;100.00;101455.16;5085095;28;20037;-65
2022/10/15 00:46:52;;;;;;;11.10;10.50;;;;;;;9.25;100.00;101456.22;5080929;28;20093;-64
2022/10/15 00:49:27;;;;;;;10.93;10.40;;;;;;;8.78;100.00;101452.69;5088077;28;20044;-65
2022/10/15 00:51:57;;;;;;;;;;;;;;;8.74;100.00;101457.44;5086135;28;20468;-65
2022/10/15 00:54:24;;;;;;;11.43;10.82;;;;;;;8.53;100.00;101467.31;5086261;28;20557;-64
2022/10/15 00:56:51;;;;;;;11.65;11.05;;;;;;;8.23;100.00;101465.59;5083188;28;20036;-64
2022/10/15 00:59:19;;;;;;;11.23;10.63;;;;;;;8.46;100.00;101469.69;5079710;28;20098;-64
2022/10/15 01:01:45;;;;;;;10.80;10.30;;;;;;;8.45;100.00;101472.47;5083208;28;20498;-64
2022/10/15 01:04:11;;;;;;;10.98;10.43;;;;;;;8.29;100.00;101467.66;5080909;28;20074;-66
2022/10/15 01:06:38;;;;;;;11.13;10.52;;;;;;;8.33;100.00;101469.06;5083637;28;20028;-66
2022/10/15 01:09:04;;;;;;;10.90;10.40;;;;;;;8.19;100.00;101462.34;5083144;28;20024;-66
2022/10/15 01:11:43;;;;;;;10.95;10.35;;;;;;;8.38;100.00;101458.13;5081927;28;20029;-66
2022/10/15 01:14:09;;;;;;;10.88;10.38;;;;;;;8.28;100.00;101463.34;5082848;28;20027;-66
2022/10/15 01:16:54;;;;;;;11.20;10.60;;;;;;;8.18;100.00;101470.44;5075791;28;20024;-67
2022/10/15 01:19:48;;;;;;;10.88;10.35;;;;;;;8.36;100.00;101463.53;5085409;28;20017;-66
2022/10/15 01:22:52;;;;;;;10.73;10.23;;;;;;;8.08;100.00;101464.28;5080302;28;20444;-65
2022/10/15 01:25:23;;;;;;;11.23;10.63;;;;;;;8.11;100.00;101467.50;5084075;28;20066;-65
2022/10/15 01:27:57;;;;;;;10.77;10.27;;;;;;;8.20;100.00;101457.91;5083372;28;20368;-65
2022/10/15 01:30:23;;;;;;;11.57;10.98;;;;;;;8.22;100.00;101469.16;5076921;28;20070;-65
2022/10/15 01:33:03;;;;;;;11.48;10.88;;;;;;;8.13;100.00;101467.34;5081058;28;20085;-66
2022/10/15 01:35:43;;;;;;;11.20;10.60;;;;;;;8.07;100.00;101462.59;5089267;28;20028;-65
2022/10/15 01:38:29;;;;;;;11.75;11.13;;;;;;;7.98;100.00;101473.00;5080212;28;20035;-66
2022/10/15 01:40:58;;;;;;;11.23;10.63;;;;;;;8.10;100.00;101475.56;5080201;28;20039;-65
2022/10/15 01:43:36;;;;;;;11.55;10.95;;;;;;;8.00;100.00;101475.50;5079345;28;20030;-65
2022/10/15 01:46:18;;;;;;;11.77;11.18;;;;;;;7.79;100.00;101472.13;5083979;28;20027;-65
2022/10/15 01:48:43;;;;;;;11.57;10.98;;;;;;;7.73;100.00;101471.69;5083562;28;20062;-66
2022/10/15 01:51:11;;;;;;;11.40;10.80;;;;;;;7.59;100.00;101468.56;5076924;28;20032;-66
2022/10/15 01:53:39;;;;;;;11.52;10.93;;;;;;;7.59;100.00;101479.13;5082359;28;20029;-65
2022/10/15 01:56:11;;;;;;;11.23;10.63;;;;;;;7.54;100.00;101476.03;5083748;28;20563;-65
2022/10/15 01:58:42;;;;;;;11.60;11.00;;;;;;;7.76;100.00;101473.22;5076727;28;20031;-66
2022/10/15 02:01:08;;;;;;;11.40;10.80;;;;;;;7.65;100.00;101465.41;5082037;28;20070;-65
2022/10/15 02:03:51;;;;;;;11.50;10.90;;;;;;;7.59;100.00;101471.22;5089017;28;20021;-66
2022/10/15 02:06:25;;;;;;;11.77;11.18;;;;;;;7.55;100.00;101467.16;5086640;28;20110;-65
2022/10/15 02:09:15;;;;;;;11.55;10.95;;;;;;;7.51;100.00;101471.88;5087489;28;20028;-66
2022/10/15 02:12:25;;;;;;;10.98;10.48;;;;;;;7.64;100.00;101475.13;5083933;28;20036;-66
2022/10/15 02:14:51;;;;;;;11.40;10.80;;;;;;;7.53;100.00;101469.94;5086461;28;20406;-66
2022/10/15 02:17:22;;;;;;;11.48;10.88;;;;;;;7.50;100.00;101467.56;5080818;28;20025;-66
2022/10/15 02:20:21;;;;;;;11.55;10.95;;;;;;;7.38;100.00;101466.78;5085149;28;20606;-65
2022/10/15 02:22:56;;;;;;;11.18;10.57;;;;;;;7.61;100.00;101469.25;5086726;28;20078;-65
2022/10/15 02:25:24;;;;;;;11.48;10.88;;;;;;;7.68;100.00;101468.59;5076585;28;20020;-65
2022/10/15 02:27:53;;;;;;;11.07;10.48;;;;;;;7.61;100.00;101467.47;5085398;28;20133;-65
2022/10/15 02:30:20;;;;;;;11.38;10.77;;;;;;;7.61;100.00;101472.75;5074919;28;20021;-64
2022/10/15 02:32:51;;;;;;;11.30;10.70;;;;;;;7.70;100.00;101468.47;5086051;28;20036;-64
2022/10/15 02:35:20;;;;;;;11.50;10.90;;;;;;;7.78;100.00;101463.34;5080896;28;20360;-64
2022/10/15 02:37:50;;;;;;;11.35;10.75;;;;;;;7.79;100.00;101462.41;5082653;28;20032;-65
2022/10/15 02:40:16;;;;;;;11.32;10.73;;;;;;;7.84;100.00;101462.81;5081550;28;20444;-65
2022/10/15 02:42:41;;;;;;;12.00;11.30;;;;;;;7.74;100.00;101456.69;5084214;28;20035;-66
2022/10/15 02:45:07;;;;;;;11.15;10.55;;;;;;;7.56;100.00;101455.63;5080722;28;20062;-65
2022/10/15 02:47:33;;;;;;;11.32;10.73;;;;;;;7.65;100.00;101462.75;5083362;28;20054;-65
2022/10/15 02:49:59;;;;;;;11.05;10.45;;;;;;;7.80;100.00;101461.44;5074740;28;20036;-66
2022/10/15 02:52:24;;;;;;;11.50;10.90;;;;;;;7.81;100.00;101464.91;5078482;28;20032;-66
2022/10/15 02:54:51;;;;;;;11.05;10.45;;;;;;;7.76;100.00;101462.66;5076788;28;20016;-66
2022/10/15 02:57:16;;;;;;;10.90;10.32;;;;;;;7.83;100.00;101457.69;5081171;28;20061;-66
2022/10/15 02:59:42;;;;;;;11.15;10.55;;;;;;;7.67;100.00;101458.19;5084516;28;20056;-66
2022/10/15 03:02:07;;;;;;;10.65;10.15;;;;;;;7.69;100.00;101459.69;5080928;28;20069;-66
2022/10/15 03:04:33;;;;;;;11.38;10.77;;;;;;;7.70;100.00;101457.91;5081688;28;20054;-66
2022/10/15 03:06:58;;;;;;;11.30;10.70;;;;;;;7.66;100.00;101464.44;5079818;28;20060;-66
2022/10/15 03:09:24;;;;;;;11.32;10.73;;;;;;;7.60;100.00;101459.69;5076889;28;20392;-65
2022/10/15 03:11:49;;;;;;;11.40;10.80;;;;;;;7.61;100.00;101451.63;5080245;28;20031;-65
2022/10/15 03:14:14;;;;;;;11.40;10.80;;;;;;;7.49;100.00;101444.75;5080547;28;20115;-65
2022/10/15 03:16:40;;;;;;;11.38;10.77;;;;;;;7.55;100.00;101451.31;5088293;28;20133;-65
2022/10/15 03:19:06;;;;;;;11.60;11.00;;;;;;;7.40;100.00;101446.38;5079178;28;20059;-66
2022/10/15 03:21:32;;;;;;;11.35;10.75;;;;;;;7.35;100.00;101456.50;5089999;28;20065;-65
2022/10/15 03:23:58;;;;;;;11.23;10.63;;;;;;;7.15;100.00;101455.56;5076854;28;20032;-65
2022/10/15 03:26:24;;;;;;;12.63;11.88;;;;;;;7.05;100.00;101448.53;5082850;28;20119;-65
2022/10/15 03:28:49;;;;;;;11.60;11.00;;;;;;;7.01;100.00;101457.69;5078719;28;20119;-65
2022/10/15 03:31:14;;;;;;;11.80;11.18;;;;;;;6.94;100.00;101449.44;5083460;28;20458;-65
2022/10/15 03:33:40;;;;;;;11.88;11.27;;;;;;;6.90;100.00;101458.56;5083823;28;20032;-65
2022/10/15 03:36:06;;;;;;;11.80;11.20;;;;;;;6.92;100.00;101457.50;5081092;28;20105;-65
2022/10/15 03:38:34;;;;;;;12.40;11.70;;;;;;;7.10;100.00;101451.63;5080939;28;20032;-65
2022/10/15 03:40:59;;;;;;;11.23;10.63;;;;;;;7.26;100.00;101452.00;5073821;28;20069;-65
2022/10/15 03:43:25;;;;;;;11.75;11.15;;;;;;;7.25;100.00;101449.50;5077283;28;20111;-64
2022/10/15 03:45:52;;;;;;;11.40;10.80;;;;;;;7.35;100.00;101455.69;5081711;28;20104;-65
2022/10/15 03:48:18;;;;;;;10.93;10.35;;;;;;;7.39;100.00;101449.97;5084715;28;20078;-65
2022/10/15 03:50:46;;;;;;;11.45;10.85;;;;;;;7.33;100.00;101447.03;5079245;28;20059;-65
2022/10/15 03:53:12;;;;;;;11.32;10.73;;;;;;;7.36;100.00;101452.06;5074040;28;20024;-64
2022/10/15 03:55:37;;;;;;;10.75;10.23;;;;;;;7.26;100.00;101449.34;5077480;28;20036;-65
2022/10/15 03:58:04;;;;;;;11.52;10.93;;;;;;;7.35;100.00;101453.88;5078648;28;20020;-64
2022/10/15 04:00:30;;;;;;;11.10;10.50;;;;;;;7.37;100.00;101451.94;5085661;28;20020;-65
2022/10/15 04:02:55;;;;;;;11.40;10.80;;;;;;;7.39;100.00;101449.16;5083330;28;20033;-65
2022/10/15 04:05:21;;;;;;;12.20;11.50;;;;;;;7.29;100.00;101454.38;5084075;28;20025;-66
2022/10/15 04:07:46;;;;;;;11.30;10.70;;;;;;;7.27;100.00;101453.69;5082501;28;20102;-65
2022/10/15 04:10:12;;;;;;;11.23;10.63;;;;;;;7.31;100.00;101455.09;5084495;28;20463;-65
2022/10/15 04:12:37;;;;;;;11.93;11.25;;;;;;;7.31;100.00;101452.44;5077824;28;20033;-66
2022/10/15 04:15:03;;;;;;;12.15;11.45;;;;;;;7.24;100.00;101453.94;5080659;28;20024;-66
2022/10/15 04:17:28;;;;;;;11.50;10.90;;;;;;;7.19;100.00;101456.13;5090652;28;20054;-64
2022/10/15 04:19:54;;;;;;;11.23;10.63;;;;;;;7.16;100.00;101446.66;5086253;28;20027;-66
2022/10/15 04:22:19;;;;;;;11.77;11.13;;;;;;;7.24;100.00;101445.19;5083010;28;20052;-65
2022/10/15 04:24:45;;;;;;;11.40;10.80;;;;;;;7.06;100.00;101440.50;5084887;28;20067;-65
2022/10/15 04:27:13;;;;;;;11.18;10.57;;;;;;;7.28;100.00;101442.16;5079083;28;20369;-65
2022/10/15 04:29:38;;;;;;;11.57;10.98;;;;;;;7.17;100.00;101439.59;5084707;28;20109;-63
2022/10/15 04:32:04;;;;;;;11.80;11.15;;;;;;;7.67;100.00;101450.25;5083428;28;20593;-67
2022/10/15 04:34:29;;;;;;;10.93;10.35;;;;;;;7.96;100.00;101450.34;5082886;28;20028;-70
2022/10/15 04:36:55;;;;;;;12.25;11.55;;;;;;;7.92;100.00;101451.56;5077868;28;20027;-65
2022/10/15 04:39:20;;;;;;;11.32;10.73;;;;;;;8.23;100.00;101444.44;5079136;28;20016;-64
2022/10/15 04:41:46;;;;;;;12.57;11.77;;;;;;;8.79;100.00;101441.97;5078130;28;20036;-66
2022/10/15 04:44:12;;;;;;;12.70;11.90;;;;;;;9.02;100.00;101445.13;5075303;28;20047;-66
2022/10/15 04:46:37;;;;;;;10.77;10.18;;;;;;;9.08;100.00;101444.56;5076038;28;20025;-65
2022/10/15 04:49:04;;;;;;;13.43;12.60;;;;;;;8.29;100.00;101449.97;5077247;28;20056;-65
2022/10/15 04:51:29;;;;;;;11.23;10.63;;;;;;;8.27;100.00;101449.28;5075959;28;20046;-65
2022/10/15 04:53:55;;;;;;;11.40;10.80;;;;;;;8.85;100.00;101446.69;5080154;28;20119;-66
2022/10/15 04:56:21;;;;;;;10.77;10.27;;;;;;;9.61;100.00;101449.28;5084280;28;20036;-66
2022/10/15 04:58:48;;;;;;;10.73;10.18;;;;;;;9.76;100.00;101444.34;5083228;28;20035;-65
2022/10/15 05:01:17;;;;;;;10.73;10.23;;;;;;;9.52;100.00;101442.22;5081148;28;20028;-64
2022/10/15 05:03:44;;;;;;;10.82;10.32;;;;;;;10.53;100.00;101445.69;5074694;28;20028;-66
2022/10/15 05:06:20;;;;;;;10.55;10.05;;;;;;;9.43;100.00;101448.38;5076066;28;20044;-65
2022/10/15 05:08:47;;;;;;;10.82;10.32;;;;;;;11.89;100.00;101451.25;5088171;28;20605;-64
2022/10/15 05:11:18;;;;;;;11.32;10.75;;;;;;;11.77;100.00;101449.84;5079786;28;20044;-65
2022/10/15 05:13:44;;;;;;;11.02;10.52;;;;;;;12.19;100.00;101454.31;5082565;28;20028;-65
2022/10/15 05:16:14;;;;;;;10.95;10.45;;;;;;;13.56;100.00;101451.84;5083460;28;20473;-67
2022/10/15 05:18:43;;;;;;;12.20;11.60;;;;;;;12.72;100.00;101451.28;5087453;28;20039;-66
2022/10/15 05:21:09;;;;;;;11.77;11.18;;;;;;;13.72;100.00;101446.44;5082803;28;20345;-66
2022/10/15 05:23:35;;;;;;;11.32;10.82;;;;;;;13.53;100.00;101458.34;5079633;28;20185;-66
2022/10/15 05:26:11;;;;;;;11.25;10.75;;;;;;;15.43;100.00;101463.09;5085744;28;20078;-66
2022/10/15 05:28:37;;;;;;;11.27;10.77;;;;;;;14.62;100.00;101449.47;5083373;28;20058;-67
2022/10/15 05:31:08;;;;;;;11.63;11.07;;;;;;;17.78;90.56;101471.25;5082886;28;20040;-65
2022/10/15 05:33:34;;;;;;;10.98;10.48;;;;;;;16.35;92.76;101465.31;5085462;28;20032;-67
2022/10/15 05:36:21;;;;;;;11.63;11.13;;;;;;;16.85;92.03;101469.75;5085814;28;20039;-66
2022/10/15 05:39:09;;;;;;;10.82;10.32;;;;;;;19.18;84.93;101472.41;5089102;28;20115;-66
2022/10/15 05:41:35;;;;;;;10.85;10.35;;;;;;;21.40;60.56;101480.59;5086343;28;20028;-65
2022/10/15 05:44:01;;;;;;;10.88;10.38;;;;;;;20.41;58.25;101479.44;5084113;28;20651;-65
2022/10/15 05:46:27;;;;;;;11.40;10.90;;;;;;;22.24;55.69;101479.00;5079128;28;20020;-65
2022/10/15 05:48:55;;;;;;;11.80;11.30;;;;;;;23.01;53.66;101479.13;5084343;28;20055;-66
2022/10/15 05:51:21;;;;;;;11.27;10.77;;;;;;;21.72;50.67;101483.16;5082070;28;20089;-66
2022/10/15 05:53:51;;;;;;;11.18;10.68;;;;;;;20.88;52.85;101481.88;5085523;28;20020;-67
2022/10/15 05:56:16;;;;;;;11.07;10.57;;;;;;;22.31;48.60;101482.44;5086448;28;20044;-67
2022/10/15 05:58:42;;;;;;;11.25;10.75;;;;;;;22.75;49.06;101480.34;5086119;28;20122;-68
2022/10/15 06:01:10;;;;;;;11.15;10.65;;;;;;;24.22;43.51;101484.75;5080566;28;20044;-67
2022/10/15 06:03:36;;;;;;;10.88;10.38;;;;;;;22.05;45.78;101489.00;5083724;28;20226;-67
2022/10/15 06:06:01;;;;;;;11.57;11.07;;;;;;;24.23;44.30;101489.09;5078156;28;20028;-67
2022/10/15 06:08:29;;;;;;;11.32;10.82;;;;;;;25.17;43.38;101494.03;5084360;28;20349;-68
2022/10/15 06:11:00;;;;;;;11.48;10.98;;;;;;;25.45;40.13;101498.53;5085903;28;20069;-67
2022/10/15 06:13:25;;;;;;;11.23;10.73;;;;;;;26.17;40.80;101501.13;5084860;28;20075;-67
2022/10/15 06:15:51;;;;;;;11.25;10.75;;;;;;;24.40;41.96;101498.16;5082795;28;20051;-68
2022/10/15 06:18:16;;;;;;;11.43;10.93;;;;;;;23.88;41.26;101498.19;5082355;28;20023;-65
2022/10/15 06:20:43;;;;;;;11.50;11.00;;;;;;;24.20;42.03;101500.44;5084846;28;20034;-67
2022/10/15 06:23:09;;;;;;;11.05;10.55;;;;;;;24.59;42.20;101506.06;5084793;28;20096;-66
2022/10/15 06:25:35;;;;;;;11.57;11.07;;;;;;;21.46;48.41;101512.13;5076708;28;20135;-68
2022/10/15 06:28:05;;;;;;;11.18;10.68;;;;;;;22.67;49.40;101507.72;5083312;28;20480;-68
2022/10/15 06:30:31;;;;;;;11.20;10.70;;;;;;;24.01;42.94;101510.63;5084814;28;20102;-68
2022/10/15 06:32:57;;;;;;;11.27;10.77;;;;;;;24.72;41.71;101519.31;5082850;28;20511;-68
2022/10/15 06:35:24;;;;;;;11.10;10.60;;;;;;;25.56;40.02;101503.88;5077995;28;20111;-68
2022/10/15 06:37:50;;;;;;;10.70;10.20;;;;;;;25.91;37.70;101513.56;5084889;28;20028;-68
2022/10/15 06:40:15;;;;;;;10.98;10.48;;;;;;;26.25;37.27;101516.97;5078681;28;20549;-68
2022/10/15 06:42:41;;;;;;;10.98;10.48;;;;;;;25.95;37.02;101506.56;5080267;28;20027;-68
2022/10/15 06:45:11;;;;;;;11.30;10.80;;;;;;;24.03;39.37;101523.97;5083874;28;20095;-69
2022/10/15 06:47:38;;;;;;;10.93;10.43;;;;;;;28.04;36.15;101521.94;5080973;28;20023;-69
2022/10/15 06:50:05;;;;;;;11.10;10.60;;;;;;;28.20;34.19;101522.78;5080610;28;20036;-69
2022/10/15 06:52:31;;;;;;;11.30;10.80;;;;;;;27.90;34.99;101518.88;5081125;28;20077;-67
2022/10/15 06:54:57;;;;;;;10.90;10.40;;;;;;;26.90;35.45;101528.81;5084265;28;20032;-69
2022/10/15 06:57:24;;;;;;;10.88;10.38;;;;;;;26.91;35.45;101530.44;5079347;28;20135;-68
2022/10/15 06:59:49;;;;;;;11.05;10.55;;;;;;;27.89;35.09;101533.59;5079047;28;20134;-68
2022/10/15 07:02:16;;;;;;;11.10;10.60;;;;;;;25.29;36.19;101532.78;5083016;28;20027;-70
2022/10/15 07:04:42;;;;;;;10.95;10.45;;;;;;;25.96;35.56;101534.56;5089671;28;20031;-68
2022/10/15 07:07:08;;;;;;;11.30;10.80;;;;;;;26.29;34.59;101528.16;5083608;28;20482;-68
2022/10/15 07:09:34;;;;;;;11.10;10.60;;;;;;;21.33;41.11;101535.69;5085566;28;20090;-67
2022/10/15 07:12:00;;;;;;;10.63;10.13;;;;;;;25.32;37.95;101535.00;5082983;28;20027;-68
2022/10/15 07:14:25;;;;;;;11.07;10.57;;;;;;;23.09;40.63;101538.31;5084295;28;20034;-69
2022/10/15 07:16:50;;;;;;;11.30;10.80;;;;;;;23.11;41.56;101529.97;5082654;28;20028;-68
2022/10/15 07:19:16;;;;;;;10.65;10.15;;;;;;;22.82;43.56;101527.06;5079400;28;20016;-69
2022/10/15 07:21:42;;;;;;;11.23;10.73;;;;;;;21.61;41.19;101535.25;5079792;28;21607;-68
2022/10/15 07:24:07;;;;;;;11.10;10.60;;;;;;;20.86;48.28;101522.56;5077191;28;20028;-68
2022/10/15 07:26:33;;;;;;;11.55;11.05;;;;;;;23.50;43.93;101530.34;5077844;28;20028;-68
2022/10/15 07:28:59;;;;;;;10.98;10.48;;;;;;;22.12;44.78;101534.09;5082992;28;20512;-68
2022/10/15 07:31:25;;;;;;;11.00;10.50;;;;;;;23.11;43.49;101527.25;5082289;28;20387;-68
2022/10/15 07:33:51;;;;;;;11.18;10.68;;;;;;;21.40;44.87;101531.06;5082686;28;20037;-68
2022/10/15 07:36:16;;;;;;;11.32;10.82;;;;;;;22.55;44.25;101521.25;5079390;28;20036;-69
2022/10/15 07:38:42;;;;;;;11.15;10.65;;;;;;;21.98;42.20;101531.50;5079614;28;20036;-68
2022/10/15 07:41:09;;;;;;;11.05;10.55;;;;;;;22.82;42.73;101527.06;5078199;28;20095;-69
2022/10/15 07:43:35;;;;;;;10.50;10.00;;;;;;;21.99;42.73;101530.44;5088101;28;20084;-69
2022/10/15 07:46:02;;;;;;;10.90;10.40;;;;;;;21.59;43.25;101531.91;5081970;28;20019;-68
2022/10/15 07:48:28;;;;;;;10.82;10.32;;;;;;;23.21;40.02;101530.25;5084238;28;20499;-69
2022/10/15 07:51:02;;;;;;;11.20;10.70;;;;;;;24.78;38.08;101529.22;5080941;28;20094;-68
2022/10/15 07:53:29;;;;;;;11.43;10.93;;;;;;;24.22;35.79;101525.41;5079487;28;20055;-69
2022/10/15 07:55:59;;;;;;;10.82;10.32;;;;;;;25.00;36.93;101527.41;5077934;28;20028;-68
2022/10/15 07:58:25;;;;;;;11.10;10.60;;;;;;;24.25;36.38;101523.06;5079297;28;20028;-68
2022/10/15 08:00:51;;;;;;;10.82;10.32;;;;;;;22.52;35.42;101515.44;5082176;28;20023;-69
2022/10/15 08:03:16;;;;;;;11.05;10.55;;;;;;;24.22;34.20;101522.69;5084959;28;20066;-67
2022/10/15 08:05:42;;;;;;;11.30;10.80;;;;;;;23.21;33.03;101507.72;5074119;28;20143;-69
2022/10/15 08:08:07;;;;;;;11.10;10.60;;;;;;;22.71;34.04;101511.63;5083257;28;20085;-67
2022/10/15 08:10:34;;;;;;;11.52;11.02;;;;;;;22.74;34.37;101513.88;5081025;28;20421;-69
2022/10/15 08:13:00;;;;;;;11.02;10.52;;;;;;;23.69;34.01;101516.47;5079262;28;20029;-69
2022/10/15 08:15:25;;;;;;;11.75;11.25;;;;;;;23.00;37.19;101528.91;5085135;28;20057;-68
2022/10/15 08:17:51;;;;;;;11.00;10.50;;;;;;;23.56;36.12;101526.69;5077406;28;20427;-69
2022/10/15 08:20:16;;;;;;;11.02;10.52;;;;;;;23.46;35.74;101526.47;5083996;28;20024;-68
2022/10/15 08:22:42;;;;;;;11.00;10.50;;;;;;;22.37;37.20;101523.97;5080459;28;20028;-69
2022/10/15 08:25:08;;;;;;;10.70;10.20;;;;;;;20.72;39.07;101539.03;5067210;28;20495;-68
2022/10/15 08:27:35;;;;;;;11.00;10.50;;;;;;;22.50;39.07;101526.50;5076942;28;20037;-69
2022/10/15 08:30:00;;;;;;;10.70;10.20;;;;;;;20.24;40.71;101532.19;5108525;28;20418;-70
2022/10/15 08:32:26;;;;;;;11.18;10.68;;;;;;;20.52;41.21;101547.25;5080329;28;20025;-68
2022/10/15 08:34:51;;;;;;;10.60;10.10;;;;;;;20.29;43.84;101539.66;5085585;28;20032;-68
2022/10/15 08:37:17;;;;;;;11.13;10.63;;;;;;;22.14;42.16;101527.38;5085017;28;20035;-68
2022/10/15 08:39:43;;;;;;;11.07;10.57;;;;;;;22.69;41.65;101526.44;5069098;28;20114;-68
2022/10/15 08:42:27;;;;;;;11.68;11.18;;;;;;;22.39;38.60;101532.66;5082646;28;20027;-68
2022/10/15 08:44:57;;;;;;;10.88;10.38;;;;;;;21.24;39.35;101535.94;5081866;28;20115;-69
2022/10/15 08:47:36;;;;;;;11.30;10.80;;;;;;;20.99;39.40;101543.19;5081140;28;20032;-68
2022/10/15 08:50:16;;;;;;;11.43;10.93;;;;;;;20.18;38.44;101521.44;5083800;28;20110;-69
2022/10/15 08:52:48;;;;;;;11.43;10.93;;;;;;;20.75;39.64;101554.78;5081265;28;20433;-68
2022/10/15 08:55:21;;;;;;;10.88;10.38;;;;;;;21.77;38.28;101534.66;5081073;28;20040;-68
2022/10/15 08:58:12;;;;;;;11.30;10.80;;;;;;;20.14;38.67;101535.34;5085652;28;20074;-68
2022/10/15 09:00:44;;;;;;;11.30;10.80;;;;;;;20.22;39.00;101525.38;5066878;28;20414;-68
2022/10/15 09:03:25;;;;;;;10.60;10.10;;;;;;;21.96;36.17;101533.59;5081810;28;20032;-69
2022/10/15 09:06:00;;;;;;;11.10;10.60;;;;;;;21.62;35.37;101540.41;5081130;28;20104;-68
2022/10/15 09:08:41;;;;;;;11.00;10.50;;;;;;;21.02;35.83;101521.19;5083065;28;20549;-68
2022/10/15 09:11:48;;;;;;;11.02;10.52;;;;;;;21.22;36.05;101521.81;5085538;28;20089;-67
2022/10/15 09:14:18;;;;;;;11.75;11.25;;;;;;;20.62;34.85;101543.03;5079843;28;20081;-69
2022/10/15 09:16:48;;;;;;;10.88;10.38;;;;;;;20.17;36.44;101531.41;5084942;28;20028;-70
2022/10/15 09:19:22;;;;;;;12.10;11.50;;;;;;;18.54;37.80;101537.44;5079920;28;20389;-68
2022/10/15 09:21:50;;;;;;;11.15;10.65;;;;;;;16.32;43.24;101538.81;5079905;28;20033;-69
2022/10/15 09:24:22;;;;;;;10.93;10.43;;;;;;;17.82;43.79;101536.91;5079719;28;20043;-69
2022/10/15 09:27:21;;;;;;;11.30;10.80;;;;;;;16.77;43.22;101539.56;5085200;28;20066;-68
2022/10/15 09:29:57;;;;;;;11.27;10.77;;;;;;;17.13;44.16;101518.03;5083781;28;20086;-68
2022/10/15 09:32:22;;;;;;;12.98;12.27;;;;;;;16.84;44.26;101535.09;5083634;28;20111;-68
2022/10/15 09:34:59;;;;;;;11.75;11.15;;;;;;;16.73;45.48;101540.94;5084665;28;20030;-69
2022/10/15 09:37:45;;;;;;;11.43;10.93;;;;;;;17.03;45.01;101526.41;5081181;28;20023;-68
2022/10/15 09:40:19;;;;;;;11.60;11.00;;;;;;;16.08;45.47;101547.16;5082717;28;20023;-68
2022/10/15 09:42:49;;;;;;;11.68;11.07;;;;;;;15.96;47.36;101528.06;5082043;28;20487;-68
2022/10/15 09:45:16;;;;;;;11.70;11.10;;;;;;;15.97;46.97;101532.41;5078530;28;20086;-68
2022/10/15 09:47:43;;;;;;;11.70;11.10;;;;;;;15.84;49.49;101532.22;5082217;28;20069;-69
2022/10/15 09:50:11;;;;;;;12.00;11.40;;;;;;;15.81;49.33;101525.41;5082143;28;20076;-67
2022/10/15 09:52:58;;;;;;;11.50;10.90;;;;;;;15.54;50.75;101529.50;5086703;28;20107;-67
2022/10/15 09:55:46;;;;;;;12.00;11.40;;;;;;;15.44;51.45;101526.25;5106146;28;20032;-68
2022/10/15 09:58:18;;;;;;;12.63;11.93;;;;;;;15.33;53.14;101506.13;5079398;28;20479;-68
2022/10/15 10:00:57;;;;;;;11.73;11.13;;;;;;;15.94;51.91;101514.06;5081631;28;20055;-68
2022/10/15 10:03:27;;;;;;;11.18;10.68;;;;;;;15.78;51.59;101499.00;5084427;28;20024;-69
2022/10/15 10:06:07;;;;;;;11.75;11.15;;;;;;;15.74;52.49;101513.78;5087264;28;20020;-67
2022/10/15 10:08:46;;;;;;;11.45;10.85;;;;;;;15.25;53.68;101505.38;5081580;28;20491;-68
2022/10/15 10:11:12;;;;;;;11.65;11.05;;;;;;;15.22;55.61;101519.94;5082624;28;20029;-68
2022/10/15 10:13:54;;;;;;;11.25;10.70;;;;;;;15.04;58.56;101520.25;5087230;28;20395;-68
2022/10/15 10:16:21;;;;;;;11.82;11.23;;;;;;;15.34;58.47;101502.44;5081795;28;20042;-67
2022/10/15 10:19:02;;;;;;;11.23;10.70;;;;;;;14.88;57.21;101499.00;5078276;28;20024;-68
2022/10/15 10:21:31;;;;;;;11.57;10.98;;;;;;;14.96;60.44;101508.81;5103858;28;20016;-67
2022/10/15 10:24:29;;;;;;;11.77;11.18;;;;;;;14.92;60.98;101519.88;5083145;28;20096;-67
2022/10/15 10:26:55;;;;;;;11.40;10.80;;;;;;;14.97;66.29;101507.78;5082321;28;20024;-67
2022/10/15 10:29:22;;;;;;;11.80;11.20;;;;;;;15.45;60.02;101515.38;5084570;28;20028;-68
2022/10/15 10:31:50;;;;;;;11.63;11.02;;;;;;;15.51;58.94;101491.59;5085852;28;20030;-67
2022/10/15 10:34:22;;;;;;;11.43;10.82;;;;;;;15.34;59.97;101509.63;5083084;28;20024;-68
2022/10/15 10:36:50;;;;;;;11.43;10.82;;;;;;;15.53;59.88;101494.91;5081646;28;20054;-68
2022/10/15 10:39:24;;;;;;;11.05;10.55;;;;;;;15.80;58.90;101499.66;5084506;28;20146;-69
2022/10/15 10:42:00;;;;;;;11.38;10.77;;;;;;;15.25;57.92;101508.88;5082651;28;20460;-68
2022/10/15 10:44:45;;;;;;;11.90;11.30;;;;;;;15.34;58.79;101481.03;5085225;28;20039;-68
2022/10/15 10:47:10;;;;;;;;;;;;;;;15.10;58.28;101497.31;5078731;28;20025;-68
2022/10/15 10:49:45;;;;;;;12.68;11.98;;;;;;;15.54;60.59;101493.91;5081098;28;19938;-66
2022/10/15 10:52:23;;;;;;;11.95;11.35;;;;;;;15.19;59.58;101486.38;5077632;28;20410;-69
2022/10/15 10:55:19;;;;;;;11.50;10.90;;;;;;;15.02;60.70;101474.19;5084776;28;20023;-67
2022/10/15 10:57:53;;;;;;;11.38;10.80;;;;;;;15.70;65.04;101480.38;5084284;28;20036;-68
2022/10/15 11:00:24;;;;;;;11.90;11.30;;;;;;;15.80;60.02;101470.22;5080256;28;20103;-68
2022/10/15 11:02:51;;;;;;;10.95;10.45;;;;;;;15.30;59.82;101485.13;5077538;28;20111;-68
2022/10/15 11:05:24;;;;;;;11.60;11.00;;;;;;;15.58;60.38;101466.59;5083807;28;20028;-69
2022/10/15 11:08:07;;;;;;;10.95;10.45;;;;;;;15.66;59.92;101477.25;5085189;28;20050;-68
2022/10/15 11:10:40;;;;;;;10.90;10.40;;;;;;;15.02;62.63;101474.19;5080630;28;20046;-68
2022/10/15 11:13:43;;;;;;;11.15;10.55;;;;;;;15.24;61.77;101480.50;5079473;28;20024;-67
2022/10/15 11:16:22;;;;;;;11.88;11.27;;;;;;;15.73;61.60;101469.31;5084180;28;20039;-68
2022/10/15 11:19:20;;;;;;;11.68;11.07;;;;;;;15.73;61.70;101466.63;5078844;28;20452;-68
2022/10/15 11:21:58;;;;;;;11.80;11.20;;;;;;;15.46;63.20;101452.84;5080556;28;20503;-69